createdAt,value
2019-04-27T00:00:06.313Z,14.77
2019-04-27T00:01:10.537Z,14.67
2019-04-27T00:02:06.376Z,14.73
2019-04-27T00:03:06.350Z,14.68
2019-04-27T00:04:06.340Z,14.66
2019-04-27T00:05:06.356Z,14.61
2019-04-27T00:06:08.442Z,14.63
2019-04-27T00:07:06.390Z,14.59
2019-04-27T00:08:06.378Z,14.51
2019-04-27T00:09:07.568Z,14.51
2019-04-27T00:10:06.510Z,14.51
2019-04-27T00:11:08.659Z,14.33
2019-04-27T00:12:06.414Z,14.37
2019-04-27T00:13:06.573Z,14.33
2019-04-27T00:14:06.438Z,14.34
2019-04-27T00:15:06.449Z,14.26
2019-04-27T00:16:09.850Z,14.34
2019-04-27T00:17:06.465Z,14.15
2019-04-27T00:18:09.446Z,14.07
2019-04-27T00:19:06.622Z,14.00
2019-04-27T00:20:06.474Z,13.97
2019-04-27T00:21:06.572Z,13.97
2019-04-27T00:22:06.478Z,13.97
2019-04-27T00:23:06.483Z,13.98
2019-04-27T00:24:06.764Z,14.05
2019-04-27T00:25:06.560Z,14.03
2019-04-27T00:26:06.519Z,13.98
2019-04-27T00:27:06.806Z,13.98
2019-04-27T00:28:06.843Z,13.97
2019-04-27T00:29:06.548Z,13.97
2019-04-27T00:30:06.550Z,14.01
2019-04-27T00:31:06.554Z,13.91
2019-04-27T00:32:06.535Z,14.00
2019-04-27T00:33:06.570Z,14.01
2019-04-27T00:34:06.609Z,13.91
2019-04-27T00:35:06.571Z,13.82
2019-04-27T00:36:06.585Z,13.93
2019-04-27T00:37:06.590Z,13.93
2019-04-27T00:38:06.618Z,13.89
2019-04-27T00:39:06.685Z,13.89
2019-04-27T00:40:06.775Z,13.95
2019-04-27T00:41:06.640Z,13.86
2019-04-27T00:42:06.630Z,13.93
2019-04-27T00:43:06.638Z,13.87
2019-04-27T00:44:06.635Z,13.95
2019-04-27T00:45:06.672Z,13.83
2019-04-27T00:46:06.731Z,13.83
2019-04-27T00:47:06.702Z,13.79
2019-04-27T00:48:06.764Z,13.79
2019-04-27T00:49:06.681Z,13.68
2019-04-27T00:50:06.679Z,13.83
2019-04-27T00:51:06.904Z,13.75
2019-04-27T00:52:06.694Z,13.68
2019-04-27T00:53:06.718Z,13.79
2019-04-27T00:54:06.904Z,13.85
2019-04-27T00:55:06.793Z,13.86
2019-04-27T00:56:06.743Z,13.91
2019-04-27T00:57:06.769Z,13.80
2019-04-27T00:58:06.747Z,13.83
2019-04-27T00:59:06.858Z,13.71
2019-04-27T01:00:06.739Z,13.73
2019-04-27T01:01:06.762Z,13.70
2019-04-27T01:02:06.763Z,13.76
2019-04-27T01:03:06.760Z,13.68
2019-04-27T01:04:06.788Z,13.62
2019-04-27T01:05:06.790Z,13.67
2019-04-27T01:06:06.825Z,13.68
2019-04-27T01:07:06.793Z,13.68
2019-04-27T01:08:06.804Z,13.73
2019-04-27T01:09:06.875Z,13.70
2019-04-27T01:10:06.818Z,13.65
2019-04-27T01:11:06.829Z,13.67
2019-04-27T01:12:06.842Z,13.73
2019-04-27T01:13:07.037Z,13.64
2019-04-27T01:14:06.833Z,13.75
2019-04-27T01:15:06.839Z,13.85
2019-04-27T01:16:08.512Z,13.80
2019-04-27T01:17:08.493Z,13.80
2019-04-27T01:18:13.313Z,13.78
2019-04-27T01:19:08.447Z,13.93
2019-04-27T01:20:08.592Z,13.94
2019-04-27T01:21:06.889Z,13.93
2019-04-27T01:22:08.645Z,13.95
2019-04-27T01:23:06.903Z,13.94
2019-04-27T01:24:08.891Z,13.87
2019-04-27T01:25:08.677Z,13.97
2019-04-27T01:26:06.934Z,13.95
2019-04-27T01:27:08.701Z,13.94
2019-04-27T01:28:06.934Z,13.93
2019-04-27T01:29:06.938Z,13.97
2019-04-27T01:30:08.703Z,13.95
2019-04-27T01:31:06.951Z,13.97
2019-04-27T01:32:08.616Z,13.94
2019-04-27T01:33:06.975Z,14.11
2019-04-27T01:34:06.974Z,14.11
2019-04-27T01:35:08.538Z,14.07
2019-04-27T01:36:07.091Z,14.19
2019-04-27T01:37:07.047Z,14.13
2019-04-27T01:38:07.005Z,14.20
2019-04-27T01:39:08.471Z,14.26
2019-04-27T01:40:07.022Z,14.26
2019-04-27T01:41:08.666Z,14.26
2019-04-27T01:42:07.023Z,14.31
2019-04-27T01:43:09.023Z,14.23
2019-04-27T01:44:07.087Z,14.38
2019-04-27T01:45:08.555Z,14.41
2019-04-27T01:46:07.068Z,14.33
2019-04-27T01:47:08.300Z,14.36
2019-04-27T01:48:07.071Z,14.36
2019-04-27T01:49:07.083Z,14.37
2019-04-27T01:50:08.643Z,14.36
2019-04-27T01:51:07.092Z,14.37
2019-04-27T01:52:07.103Z,14.30
2019-04-27T01:53:08.853Z,14.31
2019-04-27T01:54:07.112Z,14.37
2019-04-27T01:55:08.626Z,14.41
2019-04-27T01:56:09.075Z,14.33
2019-04-27T01:57:08.012Z,14.37
2019-04-27T01:58:10.592Z,14.31
2019-04-27T01:59:08.658Z,14.36
2019-04-27T02:00:08.780Z,14.45
2019-04-27T02:01:07.207Z,14.44
2019-04-27T02:02:08.791Z,14.33
2019-04-27T02:03:08.557Z,14.44
2019-04-27T02:04:07.186Z,14.52
2019-04-27T02:05:08.931Z,14.49
2019-04-27T02:06:09.119Z,14.56
2019-04-27T02:07:08.995Z,14.49
2019-04-27T02:08:07.211Z,14.52
2019-04-27T02:09:08.486Z,14.55
2019-04-27T02:10:08.856Z,14.49
2019-04-27T02:11:07.260Z,14.56
2019-04-27T02:12:07.263Z,14.66
2019-04-27T02:13:08.783Z,14.66
2019-04-27T02:14:07.322Z,14.63
2019-04-27T02:15:08.820Z,14.71
2019-04-27T02:16:08.894Z,14.66
2019-04-27T02:17:07.433Z,14.71
2019-04-27T02:18:09.336Z,14.71
2019-04-27T02:19:09.057Z,14.77
2019-04-27T02:20:07.351Z,14.68
2019-04-27T02:21:09.027Z,14.51
2019-04-27T02:22:08.590Z,14.58
2019-04-27T02:23:08.968Z,14.62
2019-04-27T02:24:07.480Z,14.62
2019-04-27T02:25:08.940Z,14.67
2019-04-27T02:26:08.604Z,14.70
2019-04-27T02:27:08.972Z,14.61
2019-04-27T02:28:07.394Z,14.73
2019-04-27T02:29:08.786Z,14.63
2019-04-27T02:30:08.278Z,14.67
2019-04-27T02:31:09.708Z,14.61
2019-04-27T02:32:10.252Z,14.59
2019-04-27T02:33:12.189Z,14.61
2019-04-27T02:34:09.547Z,14.59
2019-04-27T02:35:09.312Z,14.68
2019-04-27T02:36:12.102Z,14.67
2019-04-27T02:37:10.003Z,14.56
2019-04-27T02:38:09.966Z,14.49
2019-04-27T02:39:09.495Z,14.58
2019-04-27T02:40:09.555Z,14.63
2019-04-27T02:41:09.794Z,14.51
2019-04-27T02:42:09.436Z,14.52
2019-04-27T02:43:07.492Z,14.55
2019-04-27T02:44:09.551Z,14.55
2019-04-27T02:45:09.646Z,14.58
2019-04-27T02:46:09.581Z,14.53
2019-04-27T02:47:09.981Z,14.58
2019-04-27T02:48:09.866Z,14.61
2019-04-27T02:49:10.298Z,14.45
2019-04-27T02:50:07.539Z,14.51
2019-04-27T02:51:09.909Z,14.49
2019-04-27T02:52:09.401Z,14.52
2019-04-27T02:53:07.590Z,14.43
2019-04-27T02:54:12.035Z,14.31
2019-04-27T02:55:09.614Z,14.43
2019-04-27T02:56:10.049Z,14.51
2019-04-27T02:57:10.079Z,14.45
2019-04-27T02:58:10.018Z,14.34
2019-04-27T02:59:09.536Z,14.37
2019-04-27T03:00:07.643Z,14.31
2019-04-27T03:01:09.849Z,14.36
2019-04-27T03:02:10.504Z,14.37
2019-04-27T03:03:09.991Z,14.33
2019-04-27T03:04:09.827Z,14.38
2019-04-27T03:05:07.641Z,14.36
2019-04-27T03:06:09.706Z,14.38
2019-04-27T03:07:07.886Z,14.36
2019-04-27T03:08:10.146Z,14.36
2019-04-27T03:09:10.210Z,14.41
2019-04-27T03:10:09.909Z,14.43
2019-04-27T03:11:09.760Z,14.53
2019-04-27T03:12:10.124Z,14.37
2019-04-27T03:13:07.702Z,14.34
2019-04-27T03:14:15.141Z,14.36
2019-04-27T03:15:10.242Z,14.31
2019-04-27T03:16:07.732Z,14.33
2019-04-27T03:17:09.783Z,14.33
2019-04-27T03:18:09.902Z,14.38
2019-04-27T03:19:14.734Z,14.53
2019-04-27T03:20:10.265Z,14.51
2019-04-27T03:21:12.707Z,14.45
2019-04-27T03:22:09.719Z,14.36
2019-04-27T03:23:09.685Z,14.44
2019-04-27T03:24:09.830Z,14.45
2019-04-27T03:25:09.858Z,14.41
2019-04-27T03:26:10.562Z,14.52
2019-04-27T03:27:09.761Z,14.53
2019-04-27T03:28:14.498Z,14.53
2019-04-27T03:29:09.780Z,14.41
2019-04-27T03:30:11.691Z,14.41
2019-04-27T03:31:12.640Z,14.34
2019-04-27T03:32:12.393Z,14.37
2019-04-27T03:33:11.336Z,14.55
2019-04-27T03:34:15.658Z,14.44
2019-04-27T03:35:12.305Z,14.36
2019-04-27T03:36:12.509Z,14.44
2019-04-27T03:37:10.333Z,14.55
2019-04-27T03:38:10.418Z,14.52
2019-04-27T03:39:09.980Z,14.44
2019-04-27T03:40:10.099Z,14.51
2019-04-27T03:41:09.553Z,14.44
2019-04-27T03:42:10.166Z,14.44
2019-04-27T03:43:09.389Z,14.37
2019-04-27T03:44:09.404Z,14.36
2019-04-27T03:45:10.462Z,14.38
2019-04-27T03:46:10.125Z,14.25
2019-04-27T03:47:12.289Z,14.25
2019-04-27T03:48:10.179Z,14.19
2019-04-27T03:49:09.779Z,14.26
2019-04-27T03:50:10.335Z,14.18
2019-04-27T03:51:10.011Z,14.18
2019-04-27T03:52:09.669Z,14.07
2019-04-27T03:53:10.148Z,14.11
2019-04-27T03:54:10.403Z,14.07
2019-04-27T03:55:10.154Z,14.08
2019-04-27T03:56:10.161Z,14.13
2019-04-27T03:57:09.941Z,14.16
2019-04-27T03:58:11.793Z,14.20
2019-04-27T03:59:10.168Z,14.16
2019-04-27T04:00:10.108Z,14.23
2019-04-27T04:01:10.279Z,14.22
2019-04-27T04:02:10.152Z,14.26
2019-04-27T04:03:10.496Z,14.22
2019-04-27T04:04:10.348Z,14.25
2019-04-27T04:05:09.854Z,14.26
2019-04-27T04:06:10.522Z,14.33
2019-04-27T04:07:09.567Z,14.37
2019-04-27T04:08:10.441Z,14.37
2019-04-27T04:09:10.200Z,14.37
2019-04-27T04:10:10.375Z,14.36
2019-04-27T04:11:10.293Z,14.31
2019-04-27T04:12:09.552Z,14.31
2019-04-27T04:13:10.515Z,14.38
2019-04-27T04:14:10.139Z,14.37
2019-04-27T04:15:09.971Z,14.33
2019-04-27T04:16:10.703Z,14.25
2019-04-27T04:17:09.847Z,14.38
2019-04-27T04:18:09.826Z,14.26
2019-04-27T04:19:09.756Z,14.31
2019-04-27T04:20:10.188Z,14.33
2019-04-27T04:21:09.550Z,14.36
2019-04-27T04:22:10.228Z,14.30
2019-04-27T04:23:10.676Z,14.19
2019-04-27T04:24:08.973Z,14.37
2019-04-27T04:25:10.466Z,14.36
2019-04-27T04:26:09.837Z,14.33
2019-04-27T04:27:09.911Z,14.38
2019-04-27T04:28:09.401Z,14.34
2019-04-27T04:29:10.273Z,14.40
2019-04-27T04:30:11.802Z,14.30
2019-04-27T04:31:12.851Z,14.28
2019-04-27T04:32:10.410Z,14.34
2019-04-27T04:33:10.140Z,14.41
2019-04-27T04:34:09.709Z,14.37
2019-04-27T04:35:10.314Z,14.43
2019-04-27T04:36:10.076Z,14.34
2019-04-27T04:37:09.276Z,14.45
2019-04-27T04:38:10.332Z,14.44
2019-04-27T04:39:11.964Z,14.41
2019-04-27T04:40:09.812Z,14.40
2019-04-27T04:41:09.562Z,14.51
2019-04-27T04:42:10.165Z,14.53
2019-04-27T04:43:10.780Z,14.49
2019-04-27T04:44:12.192Z,14.45
2019-04-27T04:45:10.500Z,14.40
2019-04-27T04:46:12.278Z,14.52
2019-04-27T04:47:10.378Z,14.52
2019-04-27T04:48:09.879Z,14.49
2019-04-27T04:49:09.457Z,14.52
2019-04-27T04:50:14.422Z,14.44
2019-04-27T04:51:10.058Z,14.53
2019-04-27T04:52:09.665Z,14.55
2019-04-27T04:53:12.233Z,14.59
2019-04-27T04:54:09.524Z,14.61
2019-04-27T04:55:10.192Z,14.61
2019-04-27T04:56:08.567Z,14.63
2019-04-27T04:57:09.292Z,14.51
2019-04-27T04:58:09.349Z,14.55
2019-04-27T04:59:10.098Z,14.56
2019-04-27T05:00:09.874Z,14.61
2019-04-27T05:01:09.904Z,14.62
2019-04-27T05:02:10.528Z,14.68
2019-04-27T05:03:09.386Z,14.62
2019-04-27T05:04:09.102Z,14.66
2019-04-27T05:05:09.372Z,14.62
2019-04-27T05:06:08.886Z,14.68
2019-04-27T05:07:09.212Z,14.73
2019-04-27T05:08:09.095Z,14.67
2019-04-27T05:09:09.289Z,14.78
2019-04-27T05:10:09.176Z,14.77
2019-04-27T05:11:09.680Z,14.90
2019-04-27T05:12:08.948Z,14.81
2019-04-27T05:13:09.304Z,14.92
2019-04-27T05:14:09.852Z,14.90
2019-04-27T05:15:09.114Z,14.96
2019-04-27T05:16:08.992Z,14.90
2019-04-27T05:17:09.494Z,14.90
2019-04-27T05:18:09.073Z,14.92
2019-04-27T05:19:11.127Z,14.96
2019-04-27T05:20:12.617Z,14.90
2019-04-27T05:21:09.035Z,15.02
2019-04-27T05:22:09.368Z,14.97
2019-04-27T05:23:09.600Z,15.00
2019-04-27T05:24:09.398Z,15.04
2019-04-27T05:25:09.303Z,15.00
2019-04-27T05:26:09.086Z,15.02
2019-04-27T05:27:09.222Z,15.14
2019-04-27T05:28:09.728Z,15.10
2019-04-27T05:29:09.221Z,15.00
2019-04-27T05:30:09.339Z,15.14
2019-04-27T05:31:09.128Z,15.02
2019-04-27T05:32:09.210Z,15.15
2019-04-27T05:33:09.062Z,15.07
2019-04-27T05:34:09.538Z,15.02
2019-04-27T05:35:08.884Z,15.14
2019-04-27T05:36:09.401Z,15.14
2019-04-27T05:37:09.031Z,15.14
2019-04-27T05:38:13.134Z,15.12
2019-04-27T05:39:10.036Z,15.22
2019-04-27T05:40:09.201Z,15.30
2019-04-27T05:41:08.781Z,15.33
2019-04-27T05:42:12.547Z,15.43
2019-04-27T05:43:09.191Z,15.48
2019-04-27T05:44:12.741Z,15.48
2019-04-27T05:45:09.290Z,15.47
2019-04-27T05:46:10.942Z,15.47
2019-04-27T05:47:09.983Z,15.51
2019-04-27T05:48:09.423Z,15.60
2019-04-27T05:49:09.552Z,15.67
2019-04-27T05:50:09.109Z,15.65
2019-04-27T05:51:09.204Z,15.72
2019-04-27T05:52:14.385Z,15.76
2019-04-27T05:53:09.574Z,15.76
2019-04-27T05:54:09.144Z,15.81
2019-04-27T05:55:10.402Z,15.92
2019-04-27T05:56:09.405Z,15.83
2019-04-27T05:57:09.474Z,15.94
2019-04-27T05:58:09.342Z,15.98
2019-04-27T05:59:09.264Z,15.94
2019-04-27T06:00:09.272Z,15.94
2019-04-27T06:01:10.877Z,16.00
2019-04-27T06:02:09.468Z,16.00
2019-04-27T06:03:09.125Z,16.00
2019-04-27T06:04:09.189Z,16.10
2019-04-27T06:05:08.965Z,16.03
2019-04-27T06:06:09.699Z,16.12
2019-04-27T06:07:11.394Z,16.08
2019-04-27T06:08:09.001Z,16.21
2019-04-27T06:09:09.488Z,16.29
2019-04-27T06:10:09.563Z,16.25
2019-04-27T06:11:09.381Z,16.21
2019-04-27T06:12:09.071Z,16.21
2019-04-27T06:13:10.630Z,16.28
2019-04-27T06:14:09.672Z,16.25
2019-04-27T06:15:09.757Z,16.43
2019-04-27T06:16:09.547Z,16.34
2019-04-27T06:17:09.519Z,16.40
2019-04-27T06:18:10.052Z,16.59
2019-04-27T06:19:09.610Z,16.51
2019-04-27T06:20:11.314Z,16.55
2019-04-27T06:21:09.784Z,16.58
2019-04-27T06:22:09.651Z,16.64
2019-04-27T06:23:09.200Z,16.64
2019-04-27T06:24:09.388Z,16.69
2019-04-27T06:25:11.863Z,16.73
2019-04-27T06:26:11.684Z,16.69
2019-04-27T06:27:09.486Z,16.73
2019-04-27T06:28:09.293Z,16.76
2019-04-27T06:29:09.569Z,16.94
2019-04-27T06:30:09.379Z,16.92
2019-04-27T06:31:09.176Z,16.95
2019-04-27T06:32:10.895Z,17.04
2019-04-27T06:33:09.456Z,17.07
2019-04-27T06:34:09.821Z,17.12
2019-04-27T06:35:12.238Z,17.22
2019-04-27T06:36:10.040Z,17.37
2019-04-27T06:37:09.618Z,17.49
2019-04-27T06:38:11.408Z,17.63
2019-04-27T06:39:09.749Z,17.71
2019-04-27T06:40:09.794Z,17.71
2019-04-27T06:41:09.987Z,17.76
2019-04-27T06:42:16.679Z,17.79
2019-04-27T06:43:09.339Z,17.88
2019-04-27T06:44:11.302Z,17.98
2019-04-27T06:45:09.899Z,17.97
2019-04-27T06:46:09.366Z,17.98
2019-04-27T06:47:09.318Z,18.06
2019-04-27T06:48:09.690Z,18.09
2019-04-27T06:49:10.956Z,18.03
2019-04-27T06:50:09.386Z,18.15
2019-04-27T06:51:09.766Z,18.05
2019-04-27T06:52:09.396Z,18.23
2019-04-27T06:53:09.418Z,18.06
2019-04-27T06:54:09.438Z,18.15
2019-04-27T06:55:09.520Z,18.26
2019-04-27T06:56:09.599Z,18.34
2019-04-27T06:57:09.464Z,18.28
2019-04-27T06:58:09.446Z,18.28
2019-04-27T06:59:09.459Z,18.26
2019-04-27T07:00:09.506Z,18.33
2019-04-27T07:01:11.087Z,18.30
2019-04-27T07:02:09.528Z,18.36
2019-04-27T07:03:10.679Z,18.34
2019-04-27T07:04:10.906Z,18.39
2019-04-27T07:05:09.562Z,18.43
2019-04-27T07:06:09.500Z,18.51
2019-04-27T07:07:09.825Z,18.57
2019-04-27T07:08:09.564Z,18.57
2019-04-27T07:09:09.778Z,18.64
2019-04-27T07:10:09.553Z,18.76
2019-04-27T07:11:11.499Z,18.79
2019-04-27T07:12:09.568Z,18.71
2019-04-27T07:13:09.752Z,18.71
2019-04-27T07:14:11.570Z,18.70
2019-04-27T07:15:09.596Z,18.70
2019-04-27T07:16:09.703Z,18.67
2019-04-27T07:17:09.618Z,18.74
2019-04-27T07:18:09.759Z,18.70
2019-04-27T07:19:09.679Z,18.66
2019-04-27T07:20:09.641Z,18.61
2019-04-27T07:21:16.954Z,18.64
2019-04-27T07:22:11.443Z,18.67
2019-04-27T07:23:09.689Z,18.71
2019-04-27T07:24:09.708Z,18.70
2019-04-27T07:25:09.701Z,18.73
2019-04-27T07:26:09.742Z,18.78
2019-04-27T07:27:09.717Z,18.83
2019-04-27T07:28:09.744Z,18.83
2019-04-27T07:29:09.858Z,18.94
2019-04-27T07:30:11.803Z,19.01
2019-04-27T07:31:09.769Z,19.04
2019-04-27T07:32:09.783Z,19.05
2019-04-27T07:33:09.764Z,19.26
2019-04-27T07:34:09.843Z,19.26
2019-04-27T07:35:09.965Z,19.22
2019-04-27T07:36:09.814Z,19.24
2019-04-27T07:37:11.185Z,19.27
2019-04-27T07:38:10.012Z,19.35
2019-04-27T07:39:11.577Z,19.35
2019-04-27T07:40:09.924Z,19.44
2019-04-27T07:41:09.932Z,19.42
2019-04-27T07:42:09.872Z,19.44
2019-04-27T07:43:09.894Z,19.42
2019-04-27T07:44:10.211Z,19.42
2019-04-27T07:45:11.315Z,19.56
2019-04-27T07:46:10.013Z,19.55
2019-04-27T07:47:09.974Z,19.74
2019-04-27T07:48:09.960Z,19.70
2019-04-27T07:49:09.934Z,19.77
2019-04-27T07:50:09.951Z,19.90
2019-04-27T07:51:09.983Z,19.92
2019-04-27T07:52:10.010Z,19.99
2019-04-27T07:53:09.978Z,19.90
2019-04-27T07:54:09.989Z,19.99
2019-04-27T07:55:10.039Z,20.19
2019-04-27T07:56:10.818Z,20.17
2019-04-27T07:57:10.034Z,20.15
2019-04-27T07:58:10.082Z,20.21
2019-04-27T07:59:10.072Z,20.26
2019-04-27T08:00:10.053Z,20.30
2019-04-27T08:01:10.094Z,20.42
2019-04-27T08:02:11.129Z,20.30
2019-04-27T08:03:10.151Z,20.26
2019-04-27T08:04:10.096Z,20.37
2019-04-27T08:05:10.096Z,20.42
2019-04-27T08:06:10.850Z,20.50
2019-04-27T08:07:10.127Z,20.58
2019-04-27T08:08:10.218Z,20.67
2019-04-27T08:09:10.193Z,20.60
2019-04-27T08:10:10.166Z,20.68
2019-04-27T08:11:11.346Z,20.63
2019-04-27T08:12:10.918Z,20.74
2019-04-27T08:13:10.206Z,20.86
2019-04-27T08:14:10.238Z,20.93
2019-04-27T08:15:10.246Z,20.95
2019-04-27T08:16:10.215Z,20.88
2019-04-27T08:17:10.236Z,20.78
2019-04-27T08:18:11.237Z,20.77
2019-04-27T08:19:10.334Z,20.98
2019-04-27T08:20:10.284Z,20.93
2019-04-27T08:21:10.285Z,20.89
2019-04-27T08:22:10.299Z,20.96
2019-04-27T08:23:10.308Z,21.03
2019-04-27T08:24:11.217Z,21.08
2019-04-27T08:25:10.421Z,20.90
2019-04-27T08:26:10.327Z,21.01
2019-04-27T08:27:10.381Z,21.04
2019-04-27T08:28:10.525Z,21.01
2019-04-27T08:29:10.363Z,21.11
2019-04-27T08:30:10.415Z,21.07
2019-04-27T08:31:10.430Z,21.01
2019-04-27T08:32:10.449Z,21.03
2019-04-27T08:33:10.399Z,21.15
2019-04-27T08:34:10.440Z,21.25
2019-04-27T08:35:10.447Z,21.26
2019-04-27T08:36:10.475Z,21.25
2019-04-27T08:37:10.477Z,21.23
2019-04-27T08:38:10.503Z,21.29
2019-04-27T08:39:10.477Z,21.26
2019-04-27T08:40:10.546Z,21.37
2019-04-27T08:41:10.555Z,21.43
2019-04-27T08:42:10.535Z,21.48
2019-04-27T08:43:10.548Z,21.65
2019-04-27T08:44:10.562Z,21.62
2019-04-27T08:45:10.558Z,21.70
2019-04-27T08:46:10.924Z,21.83
2019-04-27T08:47:10.719Z,21.75
2019-04-27T08:48:10.820Z,21.69
2019-04-27T08:49:10.795Z,21.78
2019-04-27T08:50:11.181Z,21.83
2019-04-27T08:51:12.888Z,21.89
2019-04-27T08:52:11.090Z,22.01
2019-04-27T08:53:11.141Z,21.89
2019-04-27T08:54:10.944Z,22.04
2019-04-27T08:55:10.734Z,22.00
2019-04-27T08:56:11.090Z,22.01
2019-04-27T08:57:11.615Z,21.65
2019-04-27T08:58:10.853Z,21.62
2019-04-27T08:59:10.896Z,21.68
2019-04-27T09:00:10.925Z,21.65
2019-04-27T09:01:10.811Z,21.70
2019-04-27T09:02:10.873Z,21.75
2019-04-27T09:03:11.640Z,21.72
2019-04-27T09:04:11.364Z,21.68
2019-04-27T09:05:10.876Z,21.68
2019-04-27T09:06:10.953Z,21.60
2019-04-27T09:07:11.130Z,21.50
2019-04-27T09:08:10.817Z,21.56
2019-04-27T09:09:10.883Z,21.50
2019-04-27T09:10:11.032Z,21.62
2019-04-27T09:11:10.867Z,21.53
2019-04-27T09:12:10.865Z,21.47
2019-04-27T09:13:10.868Z,21.44
2019-04-27T09:14:10.896Z,21.51
2019-04-27T09:15:10.884Z,21.59
2019-04-27T09:16:11.164Z,21.56
2019-04-27T09:17:10.993Z,21.59
2019-04-27T09:18:10.914Z,21.74
2019-04-27T09:19:10.994Z,21.91
2019-04-27T09:20:11.072Z,21.83
2019-04-27T09:21:10.955Z,21.92
2019-04-27T09:22:16.074Z,21.92
2019-04-27T09:23:10.982Z,22.08
2019-04-27T09:24:11.011Z,22.15
2019-04-27T09:25:11.025Z,22.28
2019-04-27T09:26:11.201Z,22.22
2019-04-27T09:27:11.035Z,22.16
2019-04-27T09:28:11.039Z,22.07
2019-04-27T09:29:11.051Z,22.04
2019-04-27T09:30:11.112Z,22.28
2019-04-27T09:31:11.107Z,22.25
2019-04-27T09:32:11.246Z,22.28
2019-04-27T09:33:11.192Z,22.16
2019-04-27T09:34:12.669Z,22.21
2019-04-27T09:35:11.152Z,22.25
2019-04-27T09:36:11.138Z,22.37
2019-04-27T09:37:11.166Z,22.47
2019-04-27T09:38:11.190Z,22.55
2019-04-27T09:39:11.187Z,22.62
2019-04-27T09:40:11.234Z,22.80
2019-04-27T09:41:11.330Z,22.77
2019-04-27T09:42:11.258Z,22.74
2019-04-27T09:43:11.236Z,22.80
2019-04-27T09:44:11.233Z,22.71
2019-04-27T09:45:11.304Z,22.71
2019-04-27T09:46:11.259Z,22.78
2019-04-27T09:47:11.280Z,22.80
2019-04-27T09:48:11.275Z,22.80
2019-04-27T09:49:12.192Z,22.92
2019-04-27T09:50:11.318Z,22.93
2019-04-27T09:51:11.660Z,22.74
2019-04-27T09:52:23.400Z,22.93
2019-04-27T09:53:11.394Z,22.89
2019-04-27T09:54:11.434Z,22.91
2019-04-27T09:55:11.593Z,22.91
2019-04-27T09:56:11.388Z,22.83
2019-04-27T09:57:11.484Z,23.02
2019-04-27T09:58:11.540Z,23.07
2019-04-27T09:59:11.419Z,23.08
2019-04-27T10:00:11.459Z,23.13
2019-04-27T10:01:11.446Z,23.11
2019-04-27T10:02:11.487Z,23.13
2019-04-27T10:03:11.877Z,23.20
2019-04-27T10:04:11.515Z,23.29
2019-04-27T10:05:11.503Z,23.29
2019-04-27T10:06:11.499Z,23.17
2019-04-27T10:07:11.553Z,23.29
2019-04-27T10:08:11.534Z,23.26
2019-04-27T10:09:11.548Z,23.26
2019-04-27T10:10:11.581Z,23.51
2019-04-27T10:11:11.618Z,23.54
2019-04-27T10:12:11.602Z,23.49
2019-04-27T10:13:11.590Z,23.56
2019-04-27T10:14:11.652Z,23.62
2019-04-27T10:15:11.662Z,23.54
2019-04-27T10:16:11.626Z,23.54
2019-04-27T10:17:11.638Z,23.59
2019-04-27T10:18:11.671Z,23.66
2019-04-27T10:19:11.893Z,23.51
2019-04-27T10:20:11.691Z,23.37
2019-04-27T10:21:11.866Z,23.51
2019-04-27T10:22:11.788Z,23.40
2019-04-27T10:23:11.760Z,23.33
2019-04-27T10:24:11.745Z,23.39
2019-04-27T10:25:11.740Z,23.54
2019-04-27T10:26:11.776Z,23.64
2019-04-27T10:27:11.782Z,23.59
2019-04-27T10:28:11.868Z,23.74
2019-04-27T10:29:11.868Z,23.63
2019-04-27T10:30:11.815Z,23.66
2019-04-27T10:31:11.902Z,23.67
2019-04-27T10:32:11.841Z,23.82
2019-04-27T10:33:11.882Z,23.94
2019-04-27T10:34:11.912Z,23.92
2019-04-27T10:35:11.885Z,23.95
2019-04-27T10:36:11.892Z,23.70
2019-04-27T10:37:11.941Z,23.81
2019-04-27T10:38:11.918Z,23.82
2019-04-27T10:39:13.379Z,24.03
2019-04-27T10:40:11.954Z,24.03
2019-04-27T10:41:12.026Z,24.09
2019-04-27T10:42:11.967Z,24.11
2019-04-27T10:43:11.975Z,24.21
2019-04-27T10:44:12.019Z,24.24
2019-04-27T10:45:12.060Z,24.16
2019-04-27T10:46:12.011Z,24.29
2019-04-27T10:47:12.044Z,24.29
2019-04-27T10:48:12.079Z,24.40
2019-04-27T10:49:12.132Z,24.41
2019-04-27T10:50:12.083Z,24.48
2019-04-27T10:51:12.095Z,24.48
2019-04-27T10:52:12.159Z,24.51
2019-04-27T10:53:12.191Z,24.51
2019-04-27T10:54:12.196Z,24.46
2019-04-27T10:55:12.137Z,24.53
2019-04-27T10:56:12.180Z,24.63
2019-04-27T10:57:12.199Z,24.56
2019-04-27T10:58:12.199Z,24.47
2019-04-27T10:59:16.455Z,24.63
2019-04-27T11:00:12.200Z,24.62
2019-04-27T11:01:12.373Z,24.48
2019-04-27T11:02:12.219Z,24.50
2019-04-27T11:03:12.271Z,24.62
2019-04-27T11:04:12.257Z,24.58
2019-04-27T11:05:12.274Z,24.53
2019-04-27T11:06:12.307Z,24.61
2019-04-27T11:07:12.312Z,24.59
2019-04-27T11:08:12.368Z,24.53
2019-04-27T11:09:12.322Z,24.62
2019-04-27T11:10:12.338Z,24.53
2019-04-27T11:11:12.497Z,24.46
2019-04-27T11:12:12.349Z,24.55
2019-04-27T11:13:12.445Z,24.50
2019-04-27T11:14:12.662Z,24.63
2019-04-27T11:15:12.479Z,24.61
2019-04-27T11:16:12.404Z,24.51
2019-04-27T11:17:12.449Z,24.50
2019-04-27T11:18:12.472Z,24.50
2019-04-27T11:19:12.461Z,24.43
2019-04-27T11:20:12.465Z,24.29
2019-04-27T11:21:12.495Z,24.19
2019-04-27T11:22:12.515Z,24.11
2019-04-27T11:23:12.559Z,24.06
2019-04-27T11:24:12.531Z,23.89
2019-04-27T11:25:12.531Z,24.01
2019-04-27T11:26:12.558Z,24.01
2019-04-27T11:27:14.050Z,24.00
2019-04-27T11:28:13.021Z,24.16
2019-04-27T11:29:12.583Z,24.14
2019-04-27T11:30:12.595Z,24.13
2019-04-27T11:31:12.606Z,24.10
2019-04-27T11:32:12.871Z,24.11
2019-04-27T11:33:12.809Z,24.16
2019-04-27T11:34:12.662Z,24.14
2019-04-27T11:35:12.664Z,24.22
2019-04-27T11:36:14.950Z,24.14
2019-04-27T11:37:12.689Z,24.01
2019-04-27T11:38:12.730Z,24.00
2019-04-27T11:39:12.715Z,24.01
2019-04-27T11:40:12.770Z,23.95
2019-04-27T11:41:12.772Z,23.92
2019-04-27T11:42:12.760Z,23.84
2019-04-27T11:43:12.868Z,23.77
2019-04-27T11:44:12.842Z,23.71
2019-04-27T11:45:12.819Z,23.64
2019-04-27T11:46:12.874Z,23.52
2019-04-27T11:47:12.837Z,23.42
2019-04-27T11:48:12.858Z,23.49
2019-04-27T11:49:12.848Z,23.34
2019-04-27T11:50:12.880Z,23.33
2019-04-27T11:51:12.885Z,23.20
2019-04-27T11:52:13.234Z,23.13
2019-04-27T11:53:22.103Z,23.32
2019-04-27T11:54:12.924Z,23.21
2019-04-27T11:55:12.954Z,23.04
2019-04-27T11:56:12.951Z,23.10
2019-04-27T11:57:12.971Z,23.06
2019-04-27T11:58:12.975Z,23.04
2019-04-27T11:59:12.980Z,23.07
2019-04-27T12:00:13.011Z,23.21
2019-04-27T12:01:13.026Z,23.20
2019-04-27T12:02:13.043Z,23.28
2019-04-27T12:03:13.047Z,23.32
2019-04-27T12:04:13.072Z,23.29
2019-04-27T12:05:13.184Z,23.28
2019-04-27T12:06:13.225Z,23.29
2019-04-27T12:07:13.079Z,23.36
2019-04-27T12:08:13.134Z,23.36
2019-04-27T12:09:13.392Z,23.48
2019-04-27T12:10:13.660Z,23.42
2019-04-27T12:11:13.109Z,23.26
2019-04-27T12:12:18.230Z,23.25
2019-04-27T12:13:13.171Z,23.28
2019-04-27T12:14:13.388Z,23.18
2019-04-27T12:15:13.218Z,23.26
2019-04-27T12:16:13.326Z,23.26
2019-04-27T12:17:13.313Z,23.32
2019-04-27T12:18:14.339Z,23.25
2019-04-27T12:19:13.205Z,23.33
2019-04-27T12:20:13.231Z,23.36
2019-04-27T12:21:13.289Z,23.32
2019-04-27T12:22:13.251Z,23.16
2019-04-27T12:23:13.258Z,23.07
2019-04-27T12:24:13.303Z,23.08
2019-04-27T12:25:13.300Z,22.96
2019-04-27T12:26:13.574Z,22.86
2019-04-27T12:27:13.324Z,22.92
2019-04-27T12:28:13.364Z,22.81
2019-04-27T12:29:13.336Z,22.80
2019-04-27T12:30:13.347Z,22.62
2019-04-27T12:31:13.479Z,22.55
2019-04-27T12:32:13.415Z,22.56
2019-04-27T12:33:13.412Z,22.52
2019-04-27T12:34:13.399Z,22.40
2019-04-27T12:35:13.408Z,22.31
2019-04-27T12:36:13.432Z,22.34
2019-04-27T12:37:13.452Z,22.33
2019-04-27T12:38:13.478Z,22.26
2019-04-27T12:39:13.516Z,22.22
2019-04-27T12:40:13.497Z,22.23
2019-04-27T12:41:15.460Z,22.18
2019-04-27T12:42:13.510Z,22.12
2019-04-27T12:43:13.489Z,22.03
2019-04-27T12:44:13.525Z,22.01
2019-04-27T12:45:13.552Z,21.77
2019-04-27T12:46:13.735Z,21.72
2019-04-27T12:47:13.577Z,21.63
2019-04-27T12:48:13.650Z,21.60
2019-04-27T12:49:13.570Z,21.68
2019-04-27T12:50:13.580Z,21.75
2019-04-27T12:51:13.584Z,21.65
2019-04-27T12:52:15.823Z,21.66